Aircraft
UPR1004 PR-ACC A320
SBRJ
Santos Dumont Airport
SBSP
Congonhas Airport
Pilot:: Jair
Aircraft:: A321
Alternate: SBGR
Network: ivao
FLIGHT DETAILS
Distance: 197nm Duration 00h 51m
Cruise Speed: Flight Level: 24000
Validation: Pending Validation Type Charter
Flight Fuel
ZFW: 46326
Block Fuel/Initial FOB: 13496
Flight Fuel: 0
Cargo
Passengers: 150
Cargo: 11200
ROUTE
ROUTE: sbrj dct sbsp
REMARKS:
DATE
Date: 26-09-06
Departure Time: 2334
Cargo: 11200
FLIGHT DETAILS
Crashed: No
Validator Comments:
Flight Rating: 100
LANDING ANALYSIS
Landing wind: 200º/10 kt
Landing heading: 172º
Landing VS:: -311 ft/min
Landing IAS:: 124 kt
Landing Force G: 0.9 G
Landing Bank: 0
Landing Pitch: -4
Landing Flaps: 100
Navigation Lights: ON
Landing Lights: ON
Beacon Lights: ON
Strobe Lights: ON
viserfly

ALTITUDE CHART

viserfly

MAIN EVENTS

DATE EVENT IAS ALTITUDE
2026-09-05 23:33:37 FLYacars version 1.3.6 1 23
2026-09-05 23:33:37 Aircraft boarding in progress 1 23
2026-09-05 23:33:37 FLAPS 25% 1 23
2026-09-05 23:33:37 Navigation Lights ON 1 23
2026-09-05 23:33:37 Beacon Lights ON 1 23
2026-09-05 23:33:37 Strobe Lights ON 1 23
2026-09-05 23:33:37 Landing Lights ON 1 23
2026-09-05 23:33:37 Taxi Lights ON 1 23
2026-09-05 23:33:37 Starting Engine 2 1 23
2026-09-05 23:33:37 Starting Engine 1 1 23
2026-09-05 23:34:15 Aircraft taxiing to runway 6 23
2026-09-05 23:34:38 Detected Take-off roll, HDG 18, IAS 150kt, GS 152kt, G-force 1.0g, Pitch -5.2deg, Bank -0.1deg, Wind 009/01kt, Temp 21°C 150 29
2026-09-05 23:34:38 Airborne 150 29
2026-09-05 23:34:40 Gear UP, IAS 162kt, GS 164kt, ALT 52ft AGL 162 68
2026-09-05 23:34:41 Gear DOWN, IAS 162kt, GS 164kt, ALT 55ft AGL 162 71
2026-09-05 23:34:44 Taxi Lights OFF 168 249
2026-09-05 23:34:56 FLAPS 0% 190kt, ALT 776ft 190 776
2026-09-05 23:34:57 Gear UP, IAS 191kt, GS 193kt, ALT 809ft AGL 191 808
2026-09-05 23:37:28 Landing Lights OFF 250 10650
2026-09-05 23:42:35 Simulator Paused 284 24639
2026-09-05 23:42:56 Simulator Un-Paused 284 24640
2026-09-05 23:43:03 Aircraft on Top Of Climb at 24686ft, IAS 285kt, GS 367kt, HDG 263deg, TAT -19deg, WIND 271/58kt 285 24686
2026-09-05 23:57:19 Aircraft on Top Of Descent at 23498ft, IAS 282kt, GS 348kt, HDG 283deg, TAT -17deg, WIND 271/58kt 282 23498
2026-09-06 00:09:07 Landing Lights ON 203 9946
2026-09-06 00:09:27 Simulator Paused 202 9503
2026-09-06 00:10:03 Simulator Un-Paused 202 9499
2026-09-06 00:15:55 FLAPS 25% 200kt, ALT 5066ft 200 5066
2026-09-06 00:16:01 FLAPS 50% 195kt, ALT 5075ft 195 5075
2026-09-06 00:19:50 FLAPS 75% 180kt, ALT 4538ft 180 4538
2026-09-06 00:19:59 FLAPS 100% 172kt, ALT 4462ft 172 4462
2026-09-06 00:19:59 Gear DOWN, IAS 171kt, GS 184kt, ALT 1971ft AGL 171 4460
2026-09-06 00:20:05 Taxi Lights ON 163 4416
2026-09-06 00:26:02 Landed at destination with a landing rate of -311fpm, G-force 0.9g, Pitch -4.5deg, Bank -0.1deg, HDG 172deg, IAS 124kt, GS 124kt, Wind 200/10kt, Temp 14°C 124 2605
2026-09-06 00:26:02 Incorrect altimeter settings on landing 124 2605
2026-09-06 00:26:20 FLAPS 75% 39 2612
2026-09-06 00:26:21 FLAPS 25% 37 2612
2026-09-06 00:26:21 FLAPS 0% 36 2612
2026-09-06 00:26:22 Aircraft taxiing to apron 30 2612
2026-09-06 00:26:38 Landing Lights OFF 6 2613
2026-09-06 00:30:33 Strobe Lights OFF 7 2604
2026-09-06 00:30:41 Aircraft at gate/stand, ground services are moving into position, disembarkation has begun. Remaining FOB 13496kg FLYacars v1.3.6 8 2604
viserfly

ACARS DATA

DATE IAS GS ALTITUDE FUEL CONSUMED OAT FLIGHT STATUS
2026-09-05 23:34:07 2 0 23 0 21 BOARDING
2026-09-05 23:34:37 143 146 27 0 21 TAKEOFF
2026-09-05 23:35:07 207 210 1283 0 18 INITIAL CLIMB
2026-09-05 23:35:37 241 250 2930 0 17 CLIMB
2026-09-05 23:36:07 246 263 4997 0 16 CLIMB
2026-09-05 23:36:37 248 268 7148 0 14 CLIMB
2026-09-05 23:37:07 248 265 9205 0 10 CLIMB
2026-09-05 23:37:37 258 271 10975 0 6 CLIMB
2026-09-05 23:38:07 284 306 12088 0 4 CLIMB
2026-09-05 23:38:37 285 319 13937 0 0 CLIMB
2026-09-05 23:39:07 285 327 15793 0 -3 CLIMB
2026-09-05 23:39:37 284 336 17445 0 -6 CLIMB
2026-09-05 23:40:07 285 347 18912 0 -8 CLIMB
2026-09-05 23:40:37 287 352 20407 0 -11 CLIMB
2026-09-05 23:41:07 285 355 21913 0 -14 CLIMB
2026-09-05 23:41:37 286 361 23109 0 -16 CLIMB
2026-09-05 23:42:07 285 365 24109 0 -18 CLIMB
2026-09-05 23:42:37 284 367 24639 0 -19 CLIMB
2026-09-05 23:43:07 285 368 24702 0 -19 ENROUTE
2026-09-05 23:43:37 286 364 24722 0 -19 ENROUTE
2026-09-05 23:44:07 288 363 24718 0 -19 ENROUTE
2026-09-05 23:44:37 287 361 24708 0 -19 ENROUTE
2026-09-05 23:45:07 287 360 24708 0 -19 ENROUTE
2026-09-05 23:45:37 286 362 24718 0 -19 ENROUTE
2026-09-05 23:46:07 287 362 24718 0 -19 ENROUTE
2026-09-05 23:46:37 287 362 24718 0 -19 ENROUTE
2026-09-05 23:47:07 286 362 24723 0 -19 ENROUTE
2026-09-05 23:47:37 287 363 24729 0 -19 ENROUTE
2026-09-05 23:48:07 287 363 24729 0 -19 ENROUTE
2026-09-05 23:48:37 287 359 24709 0 -19 ENROUTE
2026-09-05 23:49:07 286 359 24715 0 -19 ENROUTE
2026-09-05 23:49:37 287 360 24715 0 -19 ENROUTE
2026-09-05 23:50:07 287 360 24716 0 -19 ENROUTE
2026-09-05 23:50:37 287 360 24715 0 -19 ENROUTE
2026-09-05 23:51:07 290 370 24695 0 -19 ENROUTE
2026-09-05 23:51:37 287 366 24713 0 -19 ENROUTE
2026-09-05 23:52:07 292 370 24707 0 -19 ENROUTE
2026-09-05 23:52:37 288 360 24698 0 -19 ENROUTE
2026-09-05 23:53:07 287 359 24701 0 -19 ENROUTE
2026-09-05 23:53:37 286 358 24680 0 -19 ENROUTE
2026-09-05 23:54:07 287 359 24707 0 -19 ENROUTE
2026-09-05 23:54:37 285 358 24706 0 -19 ENROUTE
2026-09-05 23:55:07 286 359 24708 0 -19 ENROUTE
2026-09-05 23:55:37 287 360 24706 0 -19 ENROUTE
2026-09-05 23:56:07 287 360 24677 0 -19 DESCENT
2026-09-05 23:56:37 287 358 24191 0 -18 DESCENT
2026-09-05 23:57:07 282 349 23700 0 -17 DESCENT
2026-09-05 23:57:37 282 346 23207 0 -16 DESCENT
2026-09-05 23:58:07 282 343 22713 0 -15 DESCENT
2026-09-05 23:58:37 282 341 22211 0 -14 DESCENT
2026-09-05 23:59:07 282 338 21710 0 -13 DESCENT
2026-09-05 23:59:37 282 336 21218 0 -12 DESCENT
2026-09-06 00:00:07 282 334 20716 0 -11 DESCENT
2026-09-06 00:00:37 280 332 20219 0 -10 DESCENT
2026-09-06 00:01:07 281 330 19722 0 -10 DESCENT
2026-09-06 00:01:37 282 328 19224 0 -9 DESCENT
2026-09-06 00:02:07 280 325 18721 0 -8 DESCENT
2026-09-06 00:02:37 260 295 18235 0 -7 DESCENT
2026-09-06 00:03:07 243 273 17710 0 -6 DESCENT
2026-09-06 00:03:37 241 267 17070 0 -5 DESCENT
2026-09-06 00:04:07 234 256 16424 0 -4 DESCENT
2026-09-06 00:04:37 227 243 15777 0 -3 DESCENT
2026-09-06 00:05:07 220 232 15135 0 -1 DESCENT
2026-09-06 00:05:37 214 224 14491 0 0 DESCENT
2026-09-06 00:06:07 209 216 13839 0 0 DESCENT
2026-09-06 00:06:37 203 209 13187 0 1 DESCENT
2026-09-06 00:07:07 203 207 12547 0 3 DESCENT
2026-09-06 00:07:37 203 206 11899 0 4 DESCENT
2026-09-06 00:08:07 202 205 11254 0 5 DESCENT
2026-09-06 00:08:37 203 205 10604 0 6 DESCENT
2026-09-06 00:09:07 203 204 9957 0 8 DESCENT
2026-09-06 00:09:37 202 204 9503 0 8 DESCENT
2026-09-06 00:10:07 202 204 9407 0 8 DESCENT
2026-09-06 00:10:37 202 204 8765 0 9 DESCENT
2026-09-06 00:11:07 202 206 8118 0 9 DESCENT
2026-09-06 00:11:37 201 207 7470 0 10 DESCENT
2026-09-06 00:12:07 202 209 6823 0 11 DESCENT
2026-09-06 00:12:37 202 211 6180 0 12 DESCENT
2026-09-06 00:13:07 201 213 5580 0 12 DESCENT
2026-09-06 00:13:37 200 215 5094 0 13 DESCENT
2026-09-06 00:14:07 201 216 5067 0 13 ENROUTE
2026-09-06 00:14:37 203 217 5068 0 12 ENROUTE
2026-09-06 00:15:07 202 216 5065 0 12 ENROUTE
2026-09-06 00:15:37 200 218 5069 0 12 ENROUTE
2026-09-06 00:16:07 188 207 5098 0 12 ENROUTE
2026-09-06 00:16:37 187 204 5069 0 12 ENROUTE
2026-09-06 00:17:07 187 206 5069 0 12 ENROUTE
2026-09-06 00:17:37 188 207 5072 0 12 ENROUTE
2026-09-06 00:18:07 184 203 5072 0 12 ENROUTE
2026-09-06 00:18:37 189 204 5069 0 12 ENROUTE
2026-09-06 00:19:07 186 200 5065 0 12 ENROUTE
2026-09-06 00:19:37 188 201 4780 0 12 APPROACH
2026-09-06 00:20:07 161 173 4404 0 12 APPROACH
2026-09-06 00:20:37 137 146 4081 0 13 APPROACH
2026-09-06 00:21:07 136 145 4061 0 13 APPROACH
2026-09-06 00:21:37 133 136 4056 0 13 APPROACH
2026-09-06 00:22:07 133 134 4060 0 13 APPROACH
2026-09-06 00:22:37 136 138 4057 0 13 APPROACH
2026-09-06 00:23:07 136 137 4062 0 13 APPROACH
2026-09-06 00:23:37 136 135 4061 0 13 APPROACH
2026-09-06 00:24:07 130 129 3867 0 13 APPROACH
2026-09-06 00:24:37 129 128 3525 0 13 APPROACH
2026-09-06 00:25:07 130 128 3191 0 13 ON FINAL
2026-09-06 00:25:37 129 129 2879 0 14 ON FINAL
2026-09-06 00:26:07 113 111 2608 0 14 ON FINAL
2026-09-06 00:26:37 6 1 2613 0 14 TAXI TO APRON
2026-09-06 00:27:07 19 11 2613 0 14 TAXI TO APRON
2026-09-06 00:27:37 3 12 2605 0 14 TAXI TO APRON
2026-09-06 00:28:07 0 12 2606 0 14 TAXI TO APRON
2026-09-06 00:28:37 8 15 2606 0 14 TAXI TO APRON
2026-09-06 00:29:07 1 9 2605 0 14 TAXI TO APRON
2026-09-06 00:29:37 11 5 2604 0 14 TAXI TO APRON
2026-09-06 00:30:07 11 1 2604 0 14 TAXI TO APRON
2026-09-06 00:30:37 9 0 2604 0 14 TAXI TO APRON
  • Join our VA!

    It has been 11 years of great learning, friendships, and stories.

  • Sign up now!